Terminal Aerodrome Forecast
Issued by NWS Atlanta, GA

Home | Current Version | Previous Version | Text Only | Print | Product List | Glossary On
Versions: 1 2 3 4 5 6 7 8 9 10 11 12 13 14 15 16 17 18 19 20
323
FTUS42 KFFC 240546
TAFCSG
TAF
KCSG 240546Z 2406/2506 27004KT P6SM SKC
     FM241600 29010G20KT P6SM FEW040
     FM250000 30010KT P6SM SCT250
     FM250500 30005KT P6SM BKN250=

USA.gov is the U.S. government's official web portal to all federal, state and local government web resources and services.